Time;durP1;ratioP1;P1;durP2;ratioP2;P2;SDS_P1;SDS_P2;PMS_P1;PMS_P2;Temp;Humidity;BMP_temperature;BMP_pressure;BME280_temperature;BME280_humidity;BME280_pressure;Samples;Min_cycle;Max_cycle;Signal;HPM_P1;HPM_P2
2021/01/10 00:02:20;;;;;;;65.37;28.40;;;0.80;99.90;;;;;;5290562;28;20566;-75
2021/01/10 00:04:56;;;;;;;69.77;27.63;;;0.80;99.90;;;;;;5289949;28;20194;-74
2021/01/10 00:07:30;;;;;;;70.27;28.10;;;0.80;99.90;;;;;;5272487;28;20196;-77
2021/01/10 00:10:05;;;;;;;66.30;28.43;;;0.80;99.90;;;;;;5290208;28;20203;-75
2021/01/10 00:12:37;;;;;;;68.53;27.13;;;0.80;99.90;;;;;;5290382;28;20187;-74
2021/01/10 00:15:11;;;;;;;63.57;26.13;;;0.80;99.90;;;;;;5290539;28;20202;-74
2021/01/10 00:17:46;;;;;;;62.97;26.47;;;0.80;99.90;;;;;;5290386;28;20200;-75
2021/01/10 00:20:18;;;;;;;60.70;25.47;;;0.80;99.90;;;;;;5290450;28;20191;-74
2021/01/10 00:22:54;;;;;;;65.87;24.77;;;0.80;99.90;;;;;;5290518;28;20196;-76
2021/01/10 00:25:27;;;;;;;62.47;24.73;;;0.80;99.90;;;;;;5290589;28;20195;-74
2021/01/10 00:27:58;;;;;;;70.63;26.90;;;0.80;99.90;;;;;;5291257;28;20211;-74
2021/01/10 00:30:31;;;;;;;64.00;25.77;;;0.80;99.90;;;;;;5290198;28;20199;-74
2021/01/10 00:33:03;;;;;;;57.83;23.30;;;0.80;99.90;;;;;;5274012;28;20555;-74
2021/01/10 00:35:35;;;;;;;55.13;23.67;;;0.80;99.90;;;;;;5294288;28;20184;-74
2021/01/10 00:38:06;;;;;;;57.00;23.47;;;0.80;99.90;;;;;;5294301;28;20196;-72
2021/01/10 00:40:38;;;;;;;49.73;21.37;;;0.80;99.90;;;;;;5294486;28;20215;-73
2021/01/10 00:43:09;;;;;;;44.63;20.13;;;0.80;99.90;;;;;;5275956;28;20196;-73
2021/01/10 00:45:41;;;;;;;45.60;19.17;;;0.80;99.90;;;;;;5294369;28;20192;-76
2021/01/10 00:48:12;;;;;;;47.60;19.67;;;0.80;99.90;;;;;;5294108;28;20192;-74
2021/01/10 00:50:44;;;;;;;47.57;19.17;;;0.80;99.90;;;;;;5276304;28;20569;-73
2021/01/10 00:53:16;;;;;;;40.07;17.20;;;0.80;99.90;;;;;;5294266;28;20198;-73
2021/01/10 00:55:48;;;;;;;40.03;18.83;;;0.80;99.90;;;;;;5293967;28;20237;-73
2021/01/10 00:58:20;;;;;;;38.43;17.70;;;0.80;99.90;;;;;;5293863;28;20202;-74
2021/01/10 01:00:52;;;;;;;39.53;17.50;;;0.80;99.90;;;;;;5294039;28;20571;-72
2021/01/10 01:03:24;;;;;;;35.60;17.10;;;0.80;99.90;;;;;;5293411;28;20279;-74
2021/01/10 01:05:55;;;;;;;39.03;18.27;;;0.80;99.90;;;;;;5293506;28;20560;-76
2021/01/10 01:08:27;;;;;;;36.10;17.30;;;0.80;99.90;;;;;;5293605;28;20236;-74
2021/01/10 01:10:58;;;;;;;40.13;17.13;;;0.80;99.90;;;;;;5293686;28;20683;-74
2021/01/10 01:13:30;;;;;;;36.80;16.97;;;0.80;99.90;;;;;;5275923;28;20192;-78
2021/01/10 01:16:01;;;;;;;36.87;17.20;;;0.80;99.90;;;;;;5293758;28;20209;-77
2021/01/10 01:18:33;;;;;;;38.10;16.77;;;0.80;99.90;;;;;;5293828;28;20631;-77
2021/01/10 01:21:06;;;;;;;39.07;17.30;;;0.80;99.90;;;;;;5293612;28;20215;-77
2021/01/10 01:23:38;;;;;;;39.00;18.03;;;0.80;99.90;;;;;;5293645;28;20548;-76
2021/01/10 01:26:20;;;;;;;36.47;16.37;;;0.80;99.90;;;;;;5293367;28;20191;-75
2021/01/10 01:28:53;;;;;;;37.80;16.97;;;0.80;99.90;;;;;;5293297;28;20191;-78
2021/01/10 01:31:26;;;;;;;39.50;17.07;;;0.80;99.90;;;;;;5293070;28;20220;-75
2021/01/10 01:33:58;;;;;;;41.20;17.30;;;0.90;99.90;;;;;;5293520;28;20610;-76
2021/01/10 01:36:29;;;;;;;46.47;18.90;;;0.90;99.90;;;;;;5293807;28;20525;-76
2021/01/10 01:39:02;;;;;;;46.43;19.10;;;0.90;99.90;;;;;;5293236;28;20199;-77
2021/01/10 01:41:37;;;;;;;41.00;17.53;;;0.90;99.90;;;;;;5293299;28;20241;-78
2021/01/10 01:44:09;;;;;;;45.80;19.20;;;0.90;99.90;;;;;;5293100;28;20191;-79
2021/01/10 01:46:40;;;;;;;43.20;19.03;;;0.90;99.90;;;;;;5294595;28;20187;-77
2021/01/10 01:49:12;;;;;;;48.03;18.13;;;0.90;99.90;;;;;;5293714;28;20204;-80
2021/01/10 01:51:45;;;;;;;44.70;18.50;;;0.90;99.90;;;;;;5293976;28;20192;-78
2021/01/10 01:54:16;;;;;;;43.80;18.07;;;0.90;99.90;;;;;;5293107;28;20324;-76
2021/01/10 01:56:48;;;;;;;43.27;19.33;;;0.90;99.90;;;;;;5293136;28;20191;-77
2021/01/10 01:59:20;;;;;;;51.43;19.80;;;0.90;99.90;;;;;;5292963;28;20191;-77
2021/01/10 02:01:51;;;;;;;44.53;18.17;;;0.90;99.90;;;;;;5292872;28;20215;-79
2021/01/10 02:04:28;;;;;;;47.60;21.00;;;0.90;99.90;;;;;;5293555;28;20240;-74
2021/01/10 02:10:35;;;;;;;45.13;19.17;;;0.90;99.90;;;;;;5229114;28;20189;-77
2021/01/10 02:13:15;;;;;;;47.17;19.43;;;0.90;99.90;;;;;;5229028;28;20209;-78
2021/01/10 02:15:47;;;;;;;45.77;18.73;;;0.90;99.90;;;;;;5229081;28;20591;-74
2021/01/10 02:18:20;;;;;;;45.37;19.00;;;0.90;99.90;;;;;;5228053;28;20229;-76
2021/01/10 02:20:53;;;;;;;43.27;19.03;;;0.90;99.90;;;;;;5227531;28;20217;-75
2021/01/10 02:27:10;;;;;;;47.10;18.67;;;0.90;99.90;;;;;;5228138;28;20176;-76
2021/01/10 02:29:43;;;;;;;40.47;18.37;;;0.90;99.90;;;;;;5228804;28;20212;-75
2021/01/10 02:32:17;;;;;;;40.73;17.33;;;0.90;99.90;;;;;;5229271;28;20205;-76
2021/01/10 02:34:51;;;;;;;37.00;17.13;;;0.90;99.90;;;;;;5229412;28;20205;-76
2021/01/10 02:38:07;;;;;;;40.77;17.10;;;0.90;99.90;;;;;;5229220;28;20250;-76
2021/01/10 02:40:47;;;;;;;38.17;16.70;;;0.90;99.90;;;;;;5184399;28;20206;-75
2021/01/10 02:43:23;;;;;;;44.03;18.90;;;0.90;99.90;;;;;;5207219;28;20216;-75
2021/01/10 02:46:00;;;;;;;43.10;18.70;;;0.90;99.90;;;;;;5206830;28;20190;-76
2021/01/10 02:48:31;;;;;;;41.07;18.53;;;0.90;99.90;;;;;;5206398;28;20194;-76
2021/01/10 02:51:16;;;;;;;43.63;18.97;;;0.90;99.90;;;;;;5206715;28;20214;-77
2021/01/10 02:53:47;;;;;;;42.23;17.97;;;0.90;99.90;;;;;;5205920;28;20206;-76
2021/01/10 02:56:19;;;;;;;43.23;17.97;;;0.90;99.90;;;;;;5205808;28;20260;-75
2021/01/10 02:58:55;;;;;;;40.43;18.57;;;0.90;99.90;;;;;;5206071;28;20190;-74
2021/01/10 03:01:27;;;;;;;48.03;18.73;;;0.90;99.90;;;;;;5205867;28;20260;-75
2021/01/10 03:03:59;;;;;;;39.90;17.70;;;0.90;99.90;;;;;;5206268;28;20210;-73
2021/01/10 03:06:31;;;;;;;41.57;19.33;;;0.90;99.90;;;;;;5206102;28;20191;-73
2021/01/10 03:09:03;;;;;;;46.23;19.67;;;0.90;99.90;;;;;;5206388;28;20217;-74
2021/01/10 03:11:35;;;;;;;41.83;18.77;;;0.90;99.90;;;;;;5205796;28;20557;-74
2021/01/10 03:14:06;;;;;;;43.77;19.17;;;0.90;99.90;;;;;;5205905;28;20191;-75
2021/01/10 03:16:38;;;;;;;47.07;19.90;;;0.90;99.90;;;;;;5270796;28;20207;-74
2021/01/10 03:19:09;;;;;;;45.90;19.77;;;0.90;99.90;;;;;;5290972;28;20239;-74
2021/01/10 03:21:42;;;;;;;43.33;19.20;;;1.00;99.90;;;;;;5291402;28;20221;-76
2021/01/10 03:24:13;;;;;;;43.47;18.47;;;1.00;99.90;;;;;;5273445;28;20187;-79
2021/01/10 03:26:45;;;;;;;42.07;19.97;;;1.00;99.90;;;;;;5291009;28;20218;-77
2021/01/10 03:29:16;;;;;;;43.83;19.03;;;1.00;99.90;;;;;;5291308;28;20522;-76
2021/01/10 03:31:47;;;;;;;38.70;17.20;;;1.00;99.90;;;;;;5291518;28;20207;-80
2021/01/10 03:34:19;;;;;;;43.33;17.33;;;1.00;99.90;;;;;;5291076;28;20191;-75
2021/01/10 03:36:55;;;;;;;39.97;17.27;;;1.00;99.90;;;;;;5290669;28;20192;-76
2021/01/10 03:39:26;;;;;;;42.17;17.87;;;1.00;99.90;;;;;;5291125;28;20549;-73
2021/01/10 03:41:58;;;;;;;40.70;17.43;;;1.00;99.90;;;;;;5290491;28;20669;-74
2021/01/10 03:44:30;;;;;;;42.03;17.13;;;1.00;99.90;;;;;;5291205;28;20187;-75
2021/01/10 03:47:01;;;;;;;35.50;17.33;;;1.00;99.90;;;;;;5290761;28;20233;-73
2021/01/10 03:49:33;;;;;;;40.63;17.80;;;1.00;99.90;;;;;;5290783;28;20550;-74
2021/01/10 03:52:04;;;;;;;42.70;18.20;;;1.00;99.90;;;;;;5290673;28;20551;-74
2021/01/10 03:54:36;;;;;;;42.20;18.30;;;1.00;99.90;;;;;;5286812;28;20233;-76
2021/01/10 03:57:07;;;;;;;40.17;18.83;;;1.00;99.90;;;;;;5290479;28;20203;-78
2021/01/10 03:59:38;;;;;;;42.20;17.10;;;1.00;99.90;;;;;;5291718;28;20213;-77
2021/01/10 04:02:10;;;;;;;40.07;17.83;;;1.00;99.90;;;;;;5291159;28;20230;-75
2021/01/10 04:04:43;;;;;;;37.77;18.07;;;1.00;99.90;;;;;;5290755;28;20286;-76
2021/01/10 04:07:14;;;;;;;39.43;17.63;;;1.00;99.90;;;;;;5291702;28;20202;-74
2021/01/10 04:09:46;;;;;;;42.83;18.00;;;1.00;99.90;;;;;;5297652;28;20191;-72
2021/01/10 04:12:17;;;;;;;41.07;17.27;;;1.00;99.90;;;;;;5297292;28;20191;-74
2021/01/10 04:14:49;;;;;;;47.20;17.43;;;1.00;99.90;;;;;;5297362;28;20198;-77
2021/01/10 04:17:20;;;;;;;33.20;16.13;;;1.00;99.90;;;;;;5297625;28;20195;-74
2021/01/10 04:19:53;;;;;;;37.77;17.10;;;1.00;99.90;;;;;;5297695;28;20247;-74
2021/01/10 04:22:24;;;;;;;35.20;15.93;;;0.90;99.90;;;;;;5279374;28;20223;-75
2021/01/10 04:25:11;;;;;;;36.77;15.73;;;0.90;99.90;;;;;;5232195;28;20209;-73
2021/01/10 04:27:43;;;;;;;38.27;16.80;;;0.90;99.90;;;;;;5232204;28;20200;-74
2021/01/10 04:30:14;;;;;;;34.40;15.40;;;0.90;99.90;;;;;;5232510;28;20201;-75
2021/01/10 04:32:46;;;;;;;37.77;16.23;;;0.90;99.90;;;;;;5232447;28;20562;-73
2021/01/10 04:35:17;;;;;;;35.37;14.80;;;0.90;99.90;;;;;;5232308;28;20679;-75
2021/01/10 04:41:34;;;;;;;36.27;14.90;;;0.90;99.90;;;;;;5232316;28;20216;-77
2021/01/10 04:44:06;;;;;;;33.40;13.93;;;0.90;99.90;;;;;;5232262;28;20186;-77
2021/01/10 04:46:38;;;;;;;34.30;15.00;;;0.90;99.90;;;;;;5215567;28;20198;-75
2021/01/10 04:49:11;;;;;;;33.10;14.73;;;0.90;99.90;;;;;;5232340;28;20200;-77
2021/01/10 04:51:45;;;;;;;37.30;14.27;;;0.90;99.90;;;;;;5232712;28;20206;-78
2021/01/10 04:58:55;;;;;;;32.50;14.07;;;0.90;99.90;;;;;;5276172;28;20608;-74
2021/01/10 05:01:50;;;;;;;31.37;13.60;;;0.90;99.90;;;;;;5275836;28;20218;-78
2021/01/10 05:04:22;;;;;;;31.83;13.70;;;0.90;99.90;;;;;;5275681;28;20222;-75
2021/01/10 05:06:54;;;;;;;29.97;13.90;;;0.90;99.90;;;;;;5275665;28;20188;-75
2021/01/10 05:13:21;;;;;;;29.77;14.00;;;0.90;99.90;;;;;;5275689;28;20221;-75
2021/01/10 05:15:56;;;;;;;28.83;13.90;;;0.90;99.90;;;;;;5276084;28;20189;-78
2021/01/10 05:18:27;;;;;;;28.93;13.50;;;0.90;99.90;;;;;;5275761;28;20249;-75
2021/01/10 05:20:59;;;;;;;33.30;14.30;;;0.90;99.90;;;;;;5271857;28;20199;-79
2021/01/10 05:23:31;;;;;;;29.43;13.23;;;0.90;99.90;;;;;;5271655;28;20193;-77
2021/01/10 05:26:07;;;;;;;30.00;14.70;;;0.90;99.90;;;;;;5272542;28;20631;-76
2021/01/10 05:28:38;;;;;;;30.73;14.20;;;1.00;99.90;;;;;;5272432;28;20188;-76
2021/01/10 05:31:11;;;;;;;33.90;14.60;;;0.90;99.90;;;;;;5272111;28;20189;-74
2021/01/10 05:33:50;;;;;;;31.77;14.33;;;0.90;99.90;;;;;;5272506;28;20576;-74
2021/01/10 05:36:26;;;;;;;31.50;13.73;;;0.90;99.90;;;;;;5272359;28;20654;-75
2021/01/10 05:39:12;;;;;;;29.07;14.30;;;0.90;99.90;;;;;;5271939;28;20192;-78
2021/01/10 05:41:54;;;;;;;28.87;14.73;;;0.90;99.90;;;;;;5272404;28;20220;-79
2021/01/10 05:44:28;;;;;;;30.30;14.23;;;0.90;99.90;;;;;;5272208;28;20525;-75
2021/01/10 05:47:05;;;;;;;31.33;13.63;;;0.90;99.90;;;;;;5272172;28;20603;-76
2021/01/10 05:49:48;;;;;;;29.37;13.03;;;0.90;99.90;;;;;;5272027;28;20192;-74
2021/01/10 05:52:22;;;;;;;28.13;13.07;;;0.90;99.90;;;;;;5272013;28;20611;-75
2021/01/10 05:54:55;;;;;;;30.93;13.90;;;0.90;99.90;;;;;;5271905;28;20192;-74
2021/01/10 05:57:28;;;;;;;29.00;13.77;;;0.90;99.90;;;;;;5281937;28;20238;-76
2021/01/10 06:00:01;;;;;;;31.57;13.43;;;0.90;99.90;;;;;;5293233;28;20200;-74
2021/01/10 06:02:36;;;;;;;29.33;13.30;;;0.90;99.90;;;;;;5293956;28;20245;-77
2021/01/10 06:05:13;;;;;;;29.27;12.17;;;0.90;99.90;;;;;;5294940;28;20676;-74
2021/01/10 06:11:30;;;;;;;27.00;13.00;;;0.90;99.90;;;;;;5292434;28;20200;-74
2021/01/10 06:14:04;;;;;;;25.97;12.67;;;0.90;99.90;;;;;;5292488;28;20202;-74
2021/01/10 06:16:37;;;;;;;24.00;12.13;;;0.90;99.90;;;;;;5292871;28;20545;-75
2021/01/10 06:19:13;;;;;;;27.60;13.00;;;0.90;99.90;;;;;;5292718;28;20192;-74
2021/01/10 06:21:48;;;;;;;27.57;12.57;;;0.90;99.90;;;;;;5292482;28;20641;-74
2021/01/10 06:28:08;;;;;;;25.00;12.03;;;0.90;99.90;;;;;;5292142;28;20178;-74
2021/01/10 06:31:01;;;;;;;24.53;11.37;;;0.90;99.90;;;;;;5291757;28;20200;-73
2021/01/10 06:33:33;;;;;;;22.07;11.70;;;0.90;99.90;;;;;;5292111;28;20202;-73
2021/01/10 06:36:08;;;;;;;24.37;12.23;;;0.80;99.90;;;;;;5291849;28;20241;-73
2021/01/10 06:38:39;;;;;;;30.40;13.40;;;0.80;99.90;;;;;;5292462;28;20545;-75
2021/01/10 06:41:41;;;;;;;27.60;13.40;;;0.80;99.90;;;;;;5293158;28;20208;-74
2021/01/10 06:44:12;;;;;;;29.17;12.93;;;0.80;99.90;;;;;;5293952;28;20187;-74
2021/01/10 06:46:51;;;;;;;30.67;13.10;;;0.80;99.90;;;;;;5293843;28;20203;-75
2021/01/10 06:49:23;;;;;;;25.00;12.93;;;0.80;99.90;;;;;;5293546;28;20195;-75
2021/01/10 06:51:58;;;;;;;24.90;12.57;;;0.80;99.90;;;;;;5296031;28;20558;-75
2021/01/10 06:54:38;;;;;;;25.57;13.20;;;0.70;99.90;;;;;;5293711;28;20195;-74
2021/01/10 06:57:11;;;;;;;32.40;15.17;;;0.70;99.90;;;;;;5292886;28;20698;-72
2021/01/10 07:00:00;;;;;;;33.27;15.67;;;0.70;99.90;;;;;;5294084;28;20635;-75
2021/01/10 07:03:05;;;;;;;31.83;15.17;;;0.70;99.90;;;;;;5294826;28;20211;-73
2021/01/10 07:06:06;;;;;;;30.47;14.10;;;0.70;99.90;;;;;;5293569;28;20194;-73
2021/01/10 07:12:32;;;;;;;30.53;14.33;;;0.60;99.90;;;;;;5186671;28;20214;-76
2021/01/10 07:15:18;;;;;;;31.43;15.60;;;0.60;99.90;;;;;;5186615;28;20689;-74
2021/01/10 07:18:02;;;;;;;39.63;16.83;;;0.70;99.90;;;;;;5185940;28;20205;-73
2021/01/10 07:20:40;;;;;;;37.40;17.77;;;0.60;99.90;;;;;;5186391;28;20202;-74
2021/01/10 07:23:28;;;;;;;36.37;17.27;;;0.60;99.90;;;;;;5185594;28;20305;-74
2021/01/10 07:26:01;;;;;;;35.30;16.80;;;0.60;99.90;;;;;;5185805;28;20246;-75
2021/01/10 07:28:43;;;;;;;39.87;17.47;;;0.70;99.90;;;;;;5185888;28;20203;-76
2021/01/10 07:31:18;;;;;;;37.53;16.50;;;0.70;99.90;;;;;;5187004;28;20211;-74
2021/01/10 07:34:09;;;;;;;34.00;15.03;;;0.70;99.90;;;;;;5186697;28;20195;-71
2021/01/10 07:36:49;;;;;;;32.53;15.63;;;0.70;99.90;;;;;;5187293;28;20195;-73
2021/01/10 07:39:24;;;;;;;34.07;16.77;;;0.70;99.90;;;;;;5185479;28;20206;-72
2021/01/10 07:42:22;;;;;;;34.30;16.73;;;0.70;99.90;;;;;;5184918;28;20218;-73
2021/01/10 07:45:02;;;;;;;36.90;17.13;;;0.70;99.90;;;;;;5232612;28;20203;-73
2021/01/10 07:47:34;;;;;;;37.40;17.57;;;0.70;99.90;;;;;;5291107;28;20214;-74
2021/01/10 07:50:19;;;;;;;40.07;17.77;;;0.70;99.90;;;;;;5291047;28;20223;-72
2021/01/10 07:52:58;;;;;;;39.17;17.83;;;0.70;99.90;;;;;;5291164;28;20183;-74
2021/01/10 07:55:31;;;;;;;39.33;17.70;;;0.80;99.90;;;;;;5291755;28;20267;-73
2021/01/10 07:58:02;;;;;;;40.80;19.13;;;0.80;99.90;;;;;;5291746;28;20295;-75
2021/01/10 08:00:50;;;;;;;42.93;21.07;;;0.80;99.90;;;;;;5291340;28;20198;-75
2021/01/10 08:03:23;;;;;;;44.63;19.67;;;0.80;99.90;;;;;;5291257;28;20215;-72
2021/01/10 08:06:05;;;;;;;42.33;19.37;;;0.80;99.90;;;;;;5291061;28;20276;-72
2021/01/10 08:12:32;;;;;;;53.47;21.53;;;0.80;99.90;;;;;;5290633;28;20636;-74
2021/01/10 08:15:04;;;;;;;48.83;20.97;;;0.90;99.90;;;;;;5291203;28;20195;-75
2021/01/10 08:17:36;;;;;;;47.97;21.13;;;0.90;99.90;;;;;;5291250;28;20191;-72
2021/01/10 08:20:09;;;;;;;49.60;22.30;;;0.90;99.90;;;;;;5291239;28;20562;-75
2021/01/10 08:22:41;;;;;;;52.13;21.87;;;0.90;99.90;;;;;;5290895;28;20215;-73
2021/01/10 08:29:09;;;;;;;50.23;21.60;;;1.00;99.90;;;;;;5291647;28;20224;-75
2021/01/10 08:31:41;;;;;;;52.63;22.83;;;1.10;99.90;;;;;;5292316;28;20191;-74
2021/01/10 08:34:16;;;;;;;54.00;24.47;;;1.10;99.90;;;;;;5293284;28;20242;-74
2021/01/10 08:36:47;;;;;;;53.77;24.37;;;1.10;99.90;;;;;;5292294;28;20238;-75
2021/01/10 08:39:19;;;;;;;62.27;26.00;;;1.10;99.90;;;;;;5292223;28;20550;-74
2021/01/10 08:41:51;;;;;;;54.83;24.23;;;1.10;99.90;;;;;;5291081;28;20222;-74
2021/01/10 08:44:40;;;;;;;53.43;24.63;;;1.10;99.90;;;;;;5291467;28;20196;-73
2021/01/10 08:47:12;;;;;;;57.50;24.37;;;1.10;99.90;;;;;;5290846;28;20630;-76
2021/01/10 08:49:44;;;;;;;59.33;25.50;;;1.10;99.90;;;;;;5290422;28;20196;-75
2021/01/10 08:52:15;;;;;;;58.27;25.50;;;1.20;99.90;;;;;;5290765;28;20200;-78
2021/01/10 08:54:50;;;;;;;56.60;25.60;;;1.20;99.90;;;;;;5291646;28;20600;-77
2021/01/10 08:57:23;;;;;;;58.50;27.90;;;1.20;99.90;;;;;;5294472;28;20234;-78
2021/01/10 08:59:56;;;;;;;68.73;30.37;;;1.20;99.90;;;;;;5295877;28;20195;-75
2021/01/10 09:02:28;;;;;;;81.30;36.00;;;1.20;99.90;;;;;;5295550;28;20223;-76
2021/01/10 09:04:59;;;;;;;77.80;37.53;;;1.30;99.90;;;;;;5294352;28;20188;-77
2021/01/10 09:07:33;;;;;;;64.13;31.87;;;1.30;99.90;;;;;;5294306;28;20195;-75
2021/01/10 09:10:08;;;;;;;62.13;28.77;;;1.30;99.90;;;;;;5293824;28;20198;-75
2021/01/10 09:12:50;;;;;;;58.97;28.07;;;1.30;99.90;;;;;;5293864;28;20205;-73
2021/01/10 09:15:24;;;;;;;62.87;27.53;;;1.40;99.90;;;;;;5294056;28;20184;-74
2021/01/10 09:18:01;;;;;;;59.33;26.87;;;1.40;99.90;;;;;;5293943;28;20191;-73
2021/01/10 09:20:35;;;;;;;54.43;25.70;;;1.50;99.90;;;;;;5293841;28;20183;-75
2021/01/10 09:23:09;;;;;;;54.97;24.47;;;1.50;99.90;;;;;;5295116;28;20559;-73
2021/01/10 09:25:40;;;;;;;51.93;25.13;;;1.60;99.90;;;;;;5296018;28;20206;-76
2021/01/10 09:28:13;;;;;;;53.63;23.33;;;1.60;99.90;;;;;;5294769;28;20196;-75
2021/01/10 09:30:57;;;;;;;46.57;23.17;;;1.70;99.90;;;;;;5295089;28;20575;-74
2021/01/10 09:33:31;;;;;;;50.60;23.83;;;1.70;99.90;;;;;;5295106;28;20638;-74
2021/01/10 09:36:03;;;;;;;52.03;23.47;;;1.70;99.90;;;;;;5293973;28;20542;-73
2021/01/10 09:42:21;;;;;;;49.97;21.90;;;1.80;99.90;;;;;;5293117;28;20234;-76
2021/01/10 09:44:54;;;;;;;51.40;23.90;;;1.80;99.90;;;;;;5293092;28;20194;-73
2021/01/10 09:47:34;;;;;;;52.90;25.03;;;1.90;99.90;;;;;;5292702;28;20215;-80
2021/01/10 09:50:14;;;;;;;48.57;23.80;;;1.90;99.90;;;;;;5293257;28;20537;-74
2021/01/10 09:52:46;;;;;;;51.60;23.77;;;1.90;99.90;;;;;;5293448;28;20202;-75
2021/01/10 09:59:04;;;;;;;50.33;22.50;;;2.10;99.90;;;;;;5286395;28;20306;-80
2021/01/10 10:01:40;;;;;;;47.97;21.87;;;2.10;99.90;;;;;;5293287;28;20216;-75
2021/01/10 10:04:11;;;;;;;48.93;22.63;;;2.20;99.90;;;;;;5293212;28;20195;-79
2021/01/10 10:06:53;;;;;;;48.27;21.07;;;2.20;99.90;;;;;;5292769;28;20223;-79
2021/01/10 10:09:44;;;;;;;45.17;21.77;;;2.30;99.90;;;;;;5292770;28;20211;-76
2021/01/10 10:12:16;;;;;;;50.17;20.63;;;2.30;99.90;;;;;;5292276;28;20188;-77
2021/01/10 10:14:52;;;;;;;48.10;21.57;;;2.30;99.90;;;;;;5292515;28;20187;-74
2021/01/10 10:17:30;;;;;;;39.50;20.97;;;2.30;99.90;;;;;;5292824;28;20183;-74
2021/01/10 10:20:04;;;;;;;44.57;21.60;;;2.30;99.90;;;;;;5292562;28;20199;-77
2021/01/10 10:22:37;;;;;;;47.10;22.87;;;2.30;99.90;;;;;;5292776;28;20242;-74
2021/01/10 10:25:12;;;;;;;45.73;23.17;;;2.40;99.90;;;;;;5291878;28;20198;-73
2021/01/10 10:27:55;;;;;;;40.83;21.00;;;2.40;99.90;;;;;;5292381;28;20608;-72
2021/01/10 10:30:28;;;;;;;50.80;23.17;;;2.40;99.90;;;;;;5291136;28;20195;-76
2021/01/10 10:33:00;;;;;;;44.33;23.13;;;2.50;99.90;;;;;;5291959;28;20218;-76
2021/01/10 10:35:32;;;;;;;42.00;22.97;;;2.50;99.90;;;;;;5288792;28;20187;-77
2021/01/10 10:38:04;;;;;;;46.57;22.73;;;2.60;99.90;;;;;;5273762;28;20187;-75
2021/01/10 10:40:36;;;;;;;45.87;22.37;;;2.60;99.90;;;;;;5291299;28;20606;-77
2021/01/10 10:43:07;;;;;;;43.50;21.47;;;2.60;99.90;;;;;;5290586;28;20222;-76
2021/01/10 10:45:39;;;;;;;48.20;22.90;;;2.70;99.90;;;;;;5290353;28;20191;-77
2021/01/10 10:48:10;;;;;;;43.77;21.80;;;2.70;99.90;;;;;;5272121;28;20206;-78
2021/01/10 10:50:42;;;;;;;48.03;21.80;;;2.70;99.90;;;;;;5290837;28;20183;-76
2021/01/10 10:53:13;;;;;;;45.37;21.43;;;2.70;99.90;;;;;;5290977;28;20198;-73
2021/01/10 10:55:44;;;;;;;44.87;22.20;;;2.60;99.90;;;;;;5290206;28;20191;-77
2021/01/10 10:58:16;;;;;;;36.47;19.73;;;2.60;99.90;;;;;;5294065;28;20237;-81
2021/01/10 11:00:47;;;;;;;39.27;19.40;;;2.50;99.90;;;;;;5293894;28;20575;-82
2021/01/10 11:03:19;;;;;;;43.07;20.60;;;2.60;99.90;;;;;;5294046;28;20319;-81
2021/01/10 11:05:51;;;;;;;42.80;20.87;;;2.60;99.90;;;;;;5292930;28;20528;-79
2021/01/10 11:08:22;;;;;;;42.40;19.73;;;2.60;99.90;;;;;;5291716;28;20227;-78
2021/01/10 11:10:53;;;;;;;35.00;19.00;;;2.60;99.90;;;;;;5291869;28;20562;-74
2021/01/10 11:13:25;;;;;;;41.80;20.93;;;2.50;99.90;;;;;;5292468;28;20191;-77
2021/01/10 11:16:00;;;;;;;40.33;20.03;;;2.50;99.90;;;;;;5291336;28;20260;-75
2021/01/10 11:18:31;;;;;;;38.23;19.53;;;2.40;99.90;;;;;;5291081;28;20301;-82
2021/01/10 11:21:03;;;;;;;40.53;21.47;;;2.30;99.90;;;;;;5292040;28;20183;-76
2021/01/10 11:27:21;;;;;;;42.77;20.50;;;2.10;99.90;;;;;;5188743;28;20183;-73
2021/01/10 11:29:56;;;;;;;41.40;19.47;;;2.10;99.90;;;;;;5191192;28;20289;-81
2021/01/10 11:32:27;;;;;;;36.20;19.33;;;2.00;99.90;;;;;;5188536;28;20229;-75
2021/01/10 11:34:59;;;;;;;39.43;20.13;;;2.00;99.90;;;;;;5189818;28;20191;-70
2021/01/10 11:37:32;;;;;;;42.47;21.93;;;1.90;99.90;;;;;;5186673;28;20225;-72
2021/01/10 11:43:52;;;;;;;38.20;19.33;;;1.80;99.90;;;;;;5184698;28;20277;-76
2021/01/10 11:46:24;;;;;;;35.57;19.13;;;2.00;99.90;;;;;;5183940;28;20190;-74
2021/01/10 11:48:56;;;;;;;37.10;18.90;;;2.10;99.90;;;;;;5185195;28;20203;-75
2021/01/10 11:51:28;;;;;;;36.70;19.77;;;2.20;99.90;;;;;;5183711;28;20206;-74
2021/01/10 11:53:59;;;;;;;36.20;18.00;;;2.20;99.90;;;;;;5184831;28;20318;-77
2021/01/10 11:56:31;;;;;;;35.63;18.10;;;2.20;99.90;;;;;;5184607;28;20598;-77
2021/01/10 11:59:03;;;;;;;33.87;16.37;;;2.10;99.90;;;;;;5186189;28;20649;-78
2021/01/10 12:01:38;;;;;;;29.87;14.17;;;2.10;99.90;;;;;;5186015;28;20714;-74
2021/01/10 12:04:10;;;;;;;31.77;14.97;;;2.00;99.90;;;;;;5266722;28;20272;-76
2021/01/10 12:06:42;;;;;;;28.77;14.30;;;2.00;99.90;;;;;;5290472;28;20198;-77
2021/01/10 12:09:13;;;;;;;30.10;15.00;;;2.00;99.90;;;;;;5272666;28;20191;-76
2021/01/10 12:11:45;;;;;;;29.60;14.10;;;2.00;99.90;;;;;;5290447;28;20641;-76
2021/01/10 12:14:17;;;;;;;22.43;12.80;;;2.00;99.90;;;;;;5290100;28;20194;-75
2021/01/10 12:16:48;;;;;;;25.13;12.70;;;1.90;99.90;;;;;;5272451;28;20196;-77
2021/01/10 12:19:22;;;;;;;27.70;12.83;;;1.90;99.90;;;;;;5290520;28;20192;-79
2021/01/10 12:21:54;;;;;;;28.67;13.97;;;1.90;99.90;;;;;;5290703;28;20226;-77
2021/01/10 12:24:25;;;;;;;27.67;13.83;;;1.90;99.90;;;;;;5290345;28;20192;-79
2021/01/10 12:26:57;;;;;;;22.70;11.93;;;1.90;99.90;;;;;;5272154;28;20192;-78
2021/01/10 12:29:28;;;;;;;25.20;12.67;;;1.90;99.90;;;;;;5292394;28;20207;-74
2021/01/10 12:32:00;;;;;;;22.90;12.20;;;2.00;99.90;;;;;;5294445;28;20281;-75
2021/01/10 12:34:32;;;;;;;25.70;12.10;;;2.00;99.90;;;;;;5294597;28;20188;-73
2021/01/10 12:37:03;;;;;;;20.70;11.97;;;2.00;99.90;;;;;;5294380;28;20558;-75
2021/01/10 12:39:36;;;;;;;23.20;11.53;;;2.00;99.90;;;;;;5293819;28;20200;-73
2021/01/10 12:42:08;;;;;;;24.43;12.77;;;2.00;99.90;;;;;;5294391;28;20576;-72
2021/01/10 12:44:39;;;;;;;22.97;12.30;;;1.90;99.90;;;;;;5293920;28;20265;-77
2021/01/10 12:47:11;;;;;;;22.73;11.67;;;1.90;99.90;;;;;;5294487;28;20192;-75
2021/01/10 12:49:44;;;;;;;22.23;11.63;;;1.80;99.90;;;;;;5294182;28;20202;-73
2021/01/10 12:52:16;;;;;;;24.90;11.97;;;1.70;99.90;;;;;;5294080;28;20195;-73
2021/01/10 12:54:47;;;;;;;21.23;11.90;;;1.70;99.90;;;;;;5293733;28;20183;-77
2021/01/10 12:57:18;;;;;;;21.03;10.73;;;1.70;99.90;;;;;;5294329;28;20595;-75
2021/01/10 12:59:50;;;;;;;24.23;12.40;;;1.60;99.90;;;;;;5293849;28;20231;-73
2021/01/10 13:02:21;;;;;;;23.03;11.53;;;1.60;99.90;;;;;;5294001;28;20657;-73
2021/01/10 13:04:53;;;;;;;24.77;12.67;;;1.60;99.90;;;;;;5294198;28;20558;-74
2021/01/10 13:07:24;;;;;;;24.37;13.30;;;1.60;99.90;;;;;;5293661;28;20647;-73
2021/01/10 13:09:56;;;;;;;27.30;13.33;;;1.60;99.90;;;;;;5294184;28;20196;-74
2021/01/10 13:12:30;;;;;;;22.83;12.50;;;1.60;99.90;;;;;;5275581;28;20203;-72
2021/01/10 13:15:02;;;;;;;22.50;11.90;;;1.60;99.90;;;;;;5293481;28;20187;-71
2021/01/10 13:17:33;;;;;;;25.37;12.50;;;1.60;99.90;;;;;;5293772;28;20218;-72
2021/01/10 13:20:06;;;;;;;25.50;12.43;;;1.60;99.90;;;;;;5293489;28;20227;-75
2021/01/10 13:22:38;;;;;;;22.33;11.20;;;1.60;99.90;;;;;;5293801;28;20639;-74
2021/01/10 13:25:09;;;;;;;21.53;10.93;;;1.60;99.90;;;;;;5294011;28;20184;-78
2021/01/10 13:27:41;;;;;;;19.33;10.87;;;1.60;99.90;;;;;;5294002;28;20195;-76
2021/01/10 13:30:14;;;;;;;20.20;11.80;;;1.60;99.90;;;;;;5293484;28;20618;-75
2021/01/10 13:32:45;;;;;;;19.77;10.63;;;1.60;99.90;;;;;;5293750;28;20184;-73
2021/01/10 13:35:19;;;;;;;21.03;10.80;;;1.60;99.90;;;;;;5293316;28;20411;-73
2021/01/10 13:37:51;;;;;;;19.67;10.00;;;1.60;99.90;;;;;;5293729;28;20222;-76
2021/01/10 13:40:23;;;;;;;18.97;10.07;;;1.60;99.90;;;;;;5292467;28;20230;-72
2021/01/10 13:42:58;;;;;;;19.83;10.13;;;1.70;99.90;;;;;;5292946;28;20238;-74
2021/01/10 13:45:30;;;;;;;20.00;10.23;;;1.70;99.90;;;;;;5292560;28;20278;-74
2021/01/10 13:48:08;;;;;;;21.70;11.00;;;1.60;99.90;;;;;;5293040;28;20198;-74
2021/01/10 13:50:47;;;;;;;22.37;10.80;;;1.60;99.90;;;;;;5292867;28;20252;-71
2021/01/10 13:53:18;;;;;;;23.17;11.23;;;1.60;99.90;;;;;;5292768;28;20562;-74
2021/01/10 13:55:50;;;;;;;20.20;11.03;;;1.60;99.90;;;;;;5292415;28;20188;-74
2021/01/10 13:58:21;;;;;;;19.37;10.03;;;1.60;99.90;;;;;;5274091;28;20254;-73
2021/01/10 14:00:53;;;;;;;20.03;11.10;;;1.60;99.90;;;;;;5292662;28;20210;-73
2021/01/10 14:03:27;;;;;;;18.63;10.63;;;1.60;99.90;;;;;;5292607;28;20219;-73
2021/01/10 14:05:58;;;;;;;22.80;11.10;;;1.60;99.90;;;;;;5292720;28;20183;-73